Dayton, Oregon
Current Conditions -  °F | °C
As of 3:53 PM on Saturday 25 Oct 2014 (Local Time) from KMMV Reporting Station
Light Rain Light Rain  
Wind Chill: 58°   Ceiling: 9000
Heat Index: 58°   Visibility: 10mi
Dew Point: 54°   Wind: 22mph
Humidity: 87%   Direction: 180°S
Pressure: 29.43"   Gusts: 33mph
Location:  45.22°N, 123.08°W
Report Text: KMMV 252253Z AUTO 18019G29KT 10SM -RA FEW039 SCT070 OVC090 14/12 A2943 RMK AO2 PK WND 18036/2223 SLP966 P0002 T01440122
Loading
Personal Weather Stations






























Interactive Weather Map
Tropical Storm Tracking
New forecast layout! Learn more

10-Day Weather Forecast

Advertisements
Track Severe Weather on mobile